sensor_id;sensor_type;location;lat;lon;timestamp;P1;durP1;ratioP1;P2;durP2;ratioP2
58978;SDS011;44763;50.464;30.612;2023-07-16T06:42:33;2.10;;;1.90;;
58978;SDS011;44763;50.464;30.612;2023-07-16T06:44:35;3.50;;;3.20;;
58978;SDS011;44763;50.464;30.612;2023-07-16T06:46:37;2.40;;;2.30;;
58978;SDS011;44763;50.464;30.612;2023-07-16T06:48:39;2.20;;;2.10;;
58978;SDS011;44763;50.464;30.612;2023-07-16T06:50:41;2.30;;;0.70;;
58978;SDS011;44763;50.464;30.612;2023-07-16T06:52:42;0.80;;;0.50;;
58978;SDS011;44763;50.464;30.612;2023-07-16T06:54:44;1.20;;;0.60;;
58978;SDS011;44763;50.464;30.612;2023-07-16T06:56:46;1.60;;;0.70;;
58978;SDS011;44763;50.464;30.612;2023-07-16T06:58:48;2.50;;;1.00;;
58978;SDS011;44763;50.464;30.612;2023-07-16T07:00:49;1.50;;;1.50;;
58978;SDS011;44763;50.464;30.612;2023-07-16T07:02:51;2.40;;;0.60;;
58978;SDS011;44763;50.464;30.612;2023-07-16T07:04:53;1.80;;;0.40;;
58978;SDS011;44763;50.464;30.612;2023-07-16T07:06:55;1.50;;;1.40;;
58978;SDS011;44763;50.464;30.612;2023-07-16T07:08:56;0.70;;;0.40;;
58978;SDS011;44763;50.464;30.612;2023-07-16T07:10:58;0.70;;;0.70;;
58978;SDS011;44763;50.464;30.612;2023-07-16T07:13:00;1.00;;;0.80;;
58978;SDS011;44763;50.464;30.612;2023-07-16T07:15:02;1.70;;;0.30;;
58978;SDS011;44763;50.464;30.612;2023-07-16T07:17:04;1.50;;;0.70;;
58978;SDS011;44763;50.464;30.612;2023-07-16T07:19:06;1.10;;;1.00;;
58978;SDS011;44763;50.464;30.612;2023-07-16T07:21:07;1.30;;;1.20;;
58978;SDS011;44763;50.464;30.612;2023-07-16T07:23:09;2.50;;;0.50;;
58978;SDS011;44763;50.464;30.612;2023-07-16T07:25:11;1.30;;;0.30;;
58978;SDS011;44763;50.464;30.612;2023-07-16T07:27:13;0.40;;;0.20;;
58978;SDS011;44763;50.464;30.612;2023-07-16T07:29:14;0.80;;;0.60;;
58978;SDS011;44763;50.464;30.612;2023-07-16T07:31:16;0.90;;;0.40;;
58978;SDS011;44763;50.464;30.612;2023-07-16T07:33:18;0.30;;;0.20;;
58978;SDS011;44763;50.464;30.612;2023-07-16T07:35:19;0.50;;;0.40;;
58978;SDS011;44763;50.464;30.612;2023-07-16T07:37:21;1.20;;;0.20;;
58978;SDS011;44763;50.464;30.612;2023-07-16T07:39:23;2.60;;;0.40;;
58978;SDS011;44763;50.464;30.612;2023-07-16T07:41:24;0.20;;;0.20;;
58978;SDS011;44763;50.464;30.612;2023-07-16T07:43:26;2.80;;;0.20;;
58978;SDS011;44763;50.464;30.612;2023-07-16T07:45:28;2.90;;;0.50;;
58978;SDS011;44763;50.464;30.612;2023-07-16T07:47:29;0.90;;;0.40;;
58978;SDS011;44763;50.464;30.612;2023-07-16T07:49:31;1.10;;;0.20;;
58978;SDS011;44763;50.464;30.612;2023-07-16T07:51:33;0.30;;;0.20;;
58978;SDS011;44763;50.464;30.612;2023-07-16T07:53:35;0.40;;;0.20;;
58978;SDS011;44763;50.464;30.612;2023-07-16T07:55:36;2.30;;;0.20;;
58978;SDS011;44763;50.464;30.612;2023-07-16T07:57:38;0.20;;;0.20;;
58978;SDS011;44763;50.464;30.612;2023-07-16T07:59:39;0.50;;;0.20;;
58978;SDS011;44763;50.464;30.612;2023-07-16T08:01:41;1.00;;;0.50;;
58978;SDS011;44763;50.464;30.612;2023-07-16T08:03:43;0.60;;;0.50;;
58978;SDS011;44763;50.464;30.612;2023-07-16T08:05:47;0.50;;;0.30;;
58978;SDS011;44763;50.464;30.612;2023-07-16T08:07:49;2.10;;;0.80;;
58978;SDS011;44763;50.464;30.612;2023-07-16T08:09:52;0.60;;;0.20;;
58978;SDS011;44763;50.464;30.612;2023-07-16T08:11:54;0.60;;;0.20;;
58978;SDS011;44763;50.464;30.612;2023-07-16T08:13:56;0.80;;;0.70;;
58978;SDS011;44763;50.464;30.612;2023-07-16T08:15:57;0.20;;;0.20;;
58978;SDS011;44763;50.464;30.612;2023-07-16T08:17:59;1.50;;;0.30;;
58978;SDS011;44763;50.464;30.612;2023-07-16T08:20:01;0.60;;;0.10;;
58978;SDS011;44763;50.464;30.612;2023-07-16T08:22:04;0.50;;;0.10;;
58978;SDS011;44763;50.464;30.612;2023-07-16T08:24:05;0.70;;;0.30;;
58978;SDS011;44763;50.464;30.612;2023-07-16T08:26:08;0.40;;;0.20;;
58978;SDS011;44763;50.464;30.612;2023-07-16T08:28:09;0.60;;;0.10;;
58978;SDS011;44763;50.464;30.612;2023-07-16T08:30:13;1.10;;;0.10;;
58978;SDS011;44763;50.464;30.612;2023-07-16T08:32:18;0.10;;;0.10;;
58978;SDS011;44763;50.464;30.612;2023-07-16T08:34:20;1.20;;;0.10;;
58978;SDS011;44763;50.464;30.612;2023-07-16T08:36:22;0.30;;;0.20;;
58978;SDS011;44763;50.464;30.612;2023-07-16T08:38:23;0.20;;;0.10;;
58978;SDS011;44763;50.464;30.612;2023-07-16T08:40:25;0.40;;;0.20;;
58978;SDS011;44763;50.464;30.612;2023-07-16T08:42:29;3.30;;;0.40;;
58978;SDS011;44763;50.464;30.612;2023-07-16T08:44:31;0.80;;;0.30;;
58978;SDS011;44763;50.464;30.612;2023-07-16T08:46:33;2.10;;;0.30;;
58978;SDS011;44763;50.464;30.612;2023-07-16T08:48:34;0.60;;;0.10;;
58978;SDS011;44763;50.464;30.612;2023-07-16T08:50:37;2.80;;;0.50;;
58978;SDS011;44763;50.464;30.612;2023-07-16T08:52:39;0.40;;;0.40;;
58978;SDS011;44763;50.464;30.612;2023-07-16T08:54:41;1.50;;;0.20;;
58978;SDS011;44763;50.464;30.612;2023-07-16T08:56:43;1.90;;;0.20;;
58978;SDS011;44763;50.464;30.612;2023-07-16T08:58:45;1.10;;;0.20;;
58978;SDS011;44763;50.464;30.612;2023-07-16T09:00:47;1.40;;;0.50;;
58978;SDS011;44763;50.464;30.612;2023-07-16T09:02:49;1.60;;;0.30;;
58978;SDS011;44763;50.464;30.612;2023-07-16T09:04:51;2.80;;;0.40;;
58978;SDS011;44763;50.464;30.612;2023-07-16T09:06:53;0.30;;;0.30;;
58978;SDS011;44763;50.464;30.612;2023-07-16T09:08:55;0.80;;;0.30;;
58978;SDS011;44763;50.464;30.612;2023-07-16T09:10:57;1.10;;;0.30;;
58978;SDS011;44763;50.464;30.612;2023-07-16T09:12:59;0.60;;;0.20;;
58978;SDS011;44763;50.464;30.612;2023-07-16T09:15:02;2.10;;;0.60;;
58978;SDS011;44763;50.464;30.612;2023-07-16T09:17:04;4.60;;;0.20;;
58978;SDS011;44763;50.464;30.612;2023-07-16T09:19:12;3.10;;;0.20;;
58978;SDS011;44763;50.464;30.612;2023-07-16T09:21:15;1.90;;;0.40;;
58978;SDS011;44763;50.464;30.612;2023-07-16T09:23:17;1.10;;;0.50;;
58978;SDS011;44763;50.464;30.612;2023-07-16T09:25:19;0.90;;;0.30;;
58978;SDS011;44763;50.464;30.612;2023-07-16T09:27:20;1.40;;;0.30;;
58978;SDS011;44763;50.464;30.612;2023-07-16T09:29:24;0.70;;;0.20;;
58978;SDS011;44763;50.464;30.612;2023-07-16T09:31:27;1.60;;;0.30;;
58978;SDS011;44763;50.464;30.612;2023-07-16T09:33:30;0.60;;;0.40;;
58978;SDS011;44763;50.464;30.612;2023-07-16T09:35:32;0.40;;;0.40;;
58978;SDS011;44763;50.464;30.612;2023-07-16T09:39:39;1.30;;;0.40;;
58978;SDS011;44763;50.464;30.612;2023-07-16T09:41:43;1.70;;;0.50;;
58978;SDS011;44763;50.464;30.612;2023-07-16T09:43:45;0.90;;;0.30;;
58978;SDS011;44763;50.464;30.612;2023-07-16T09:45:47;1.70;;;0.20;;
58978;SDS011;44763;50.464;30.612;2023-07-16T09:47:48;0.80;;;0.30;;
58978;SDS011;44763;50.464;30.612;2023-07-16T09:49:50;0.20;;;0.20;;
58978;SDS011;44763;50.464;30.612;2023-07-16T09:51:52;3.70;;;0.60;;
58978;SDS011;44763;50.464;30.612;2023-07-16T09:53:58;1.30;;;1.00;;
58978;SDS011;44763;50.464;30.612;2023-07-16T09:56:02;0.90;;;0.30;;
58978;SDS011;44763;50.464;30.612;2023-07-16T09:58:06;0.50;;;0.50;;
58978;SDS011;44763;50.464;30.612;2023-07-16T10:00:12;0.60;;;0.30;;
58978;SDS011;44763;50.464;30.612;2023-07-16T10:02:19;2.10;;;0.40;;
58978;SDS011;44763;50.464;30.612;2023-07-16T10:04:22;0.70;;;0.40;;
58978;SDS011;44763;50.464;30.612;2023-07-16T10:06:24;1.10;;;0.70;;
58978;SDS011;44763;50.464;30.612;2023-07-16T10:08:26;3.40;;;0.40;;
58978;SDS011;44763;50.464;30.612;2023-07-16T10:10:39;0.60;;;0.60;;
58978;SDS011;44763;50.464;30.612;2023-07-16T10:12:56;1.20;;;0.80;;
58978;SDS011;44763;50.464;30.612;2023-07-16T10:14:59;0.60;;;0.60;;
58978;SDS011;44763;50.464;30.612;2023-07-16T10:17:05;1.70;;;0.40;;
58978;SDS011;44763;50.464;30.612;2023-07-16T10:19:06;1.40;;;0.30;;
58978;SDS011;44763;50.464;30.612;2023-07-16T10:21:08;0.90;;;0.40;;
58978;SDS011;44763;50.464;30.612;2023-07-16T10:23:13;0.90;;;0.40;;
58978;SDS011;44763;50.464;30.612;2023-07-16T10:27:26;0.30;;;0.30;;
58978;SDS011;44763;50.464;30.612;2023-07-16T10:29:28;2.10;;;0.50;;
58978;SDS011;44763;50.464;30.612;2023-07-16T10:31:30;0.70;;;0.30;;
58978;SDS011;44763;50.464;30.612;2023-07-16T10:33:34;0.80;;;0.50;;
58978;SDS011;44763;50.464;30.612;2023-07-16T10:35:42;2.80;;;0.70;;
58978;SDS011;44763;50.464;30.612;2023-07-16T10:37:46;4.00;;;0.90;;
58978;SDS011;44763;50.464;30.612;2023-07-16T10:39:48;0.60;;;0.30;;
58978;SDS011;44763;50.464;30.612;2023-07-16T10:41:51;2.40;;;0.40;;
58978;SDS011;44763;50.464;30.612;2023-07-16T10:43:53;0.50;;;0.50;;
58978;SDS011;44763;50.464;30.612;2023-07-16T10:45:56;0.60;;;0.60;;
58978;SDS011;44763;50.464;30.612;2023-07-16T10:47:58;1.10;;;0.50;;
58978;SDS011;44763;50.464;30.612;2023-07-16T10:50:00;3.20;;;1.00;;
58978;SDS011;44763;50.464;30.612;2023-07-16T10:52:05;0.40;;;0.40;;
58978;SDS011;44763;50.464;30.612;2023-07-16T10:54:06;1.10;;;0.40;;
58978;SDS011;44763;50.464;30.612;2023-07-16T10:56:08;1.00;;;0.50;;
58978;SDS011;44763;50.464;30.612;2023-07-16T10:58:10;2.40;;;0.50;;
58978;SDS011;44763;50.464;30.612;2023-07-16T11:00:12;1.50;;;0.40;;
58978;SDS011;44763;50.464;30.612;2023-07-16T11:02:15;1.30;;;0.70;;
58978;SDS011;44763;50.464;30.612;2023-07-16T11:04:17;0.70;;;0.40;;
58978;SDS011;44763;50.464;30.612;2023-07-16T11:06:19;0.70;;;0.70;;
58978;SDS011;44763;50.464;30.612;2023-07-16T11:08:24;4.40;;;0.60;;
58978;SDS011;44763;50.464;30.612;2023-07-16T11:10:29;1.20;;;0.40;;
58978;SDS011;44763;50.464;30.612;2023-07-16T11:12:31;0.80;;;0.50;;
58978;SDS011;44763;50.464;30.612;2023-07-16T11:14:34;1.60;;;0.70;;
58978;SDS011;44763;50.464;30.612;2023-07-16T11:16:36;0.50;;;0.40;;
58978;SDS011;44763;50.464;30.612;2023-07-16T11:18:39;0.50;;;0.50;;
58978;SDS011;44763;50.464;30.612;2023-07-16T11:20:43;2.20;;;1.20;;
58978;SDS011;44763;50.464;30.612;2023-07-16T11:22:44;0.50;;;0.30;;
58978;SDS011;44763;50.464;30.612;2023-07-16T11:24:49;2.30;;;0.40;;
58978;SDS011;44763;50.464;30.612;2023-07-16T11:26:52;0.60;;;0.60;;
58978;SDS011;44763;50.464;30.612;2023-07-16T11:29:00;0.50;;;0.40;;
58978;SDS011;44763;50.464;30.612;2023-07-16T11:31:09;1.10;;;0.50;;
58978;SDS011;44763;50.464;30.612;2023-07-16T11:33:15;2.30;;;0.50;;
58978;SDS011;44763;50.464;30.612;2023-07-16T11:35:17;1.70;;;0.60;;
58978;SDS011;44763;50.464;30.612;2023-07-16T11:37:20;0.90;;;0.50;;
58978;SDS011;44763;50.464;30.612;2023-07-16T11:39:24;0.90;;;0.70;;
58978;SDS011;44763;50.464;30.612;2023-07-16T11:41:29;1.60;;;0.70;;
58978;SDS011;44763;50.464;30.612;2023-07-16T11:43:35;0.50;;;0.50;;
58978;SDS011;44763;50.464;30.612;2023-07-16T11:45:46;1.00;;;0.60;;
58978;SDS011;44763;50.464;30.612;2023-07-16T11:47:49;1.30;;;0.40;;
58978;SDS011;44763;50.464;30.612;2023-07-16T11:49:51;0.60;;;0.60;;
58978;SDS011;44763;50.464;30.612;2023-07-16T11:51:53;1.50;;;0.60;;
58978;SDS011;44763;50.464;30.612;2023-07-16T11:53:55;0.80;;;0.80;;
58978;SDS011;44763;50.464;30.612;2023-07-16T11:55:58;7.50;;;0.70;;
58978;SDS011;44763;50.464;30.612;2023-07-16T11:58:00;0.90;;;0.50;;
58978;SDS011;44763;50.464;30.612;2023-07-16T12:00:02;1.50;;;0.80;;
58978;SDS011;44763;50.464;30.612;2023-07-16T12:02:05;1.20;;;0.80;;
58978;SDS011;44763;50.464;30.612;2023-07-16T12:04:07;1.90;;;0.70;;
58978;SDS011;44763;50.464;30.612;2023-07-16T12:06:09;1.50;;;0.80;;
58978;SDS011;44763;50.464;30.612;2023-07-16T12:08:12;2.90;;;0.50;;
58978;SDS011;44763;50.464;30.612;2023-07-16T12:10:16;1.40;;;1.10;;
58978;SDS011;44763;50.464;30.612;2023-07-16T12:12:18;0.70;;;0.50;;
58978;SDS011;44763;50.464;30.612;2023-07-16T12:14:20;4.30;;;0.80;;
58978;SDS011;44763;50.464;30.612;2023-07-16T12:16:21;0.60;;;0.50;;
58978;SDS011;44763;50.464;30.612;2023-07-16T12:18:23;1.40;;;0.70;;
58978;SDS011;44763;50.464;30.612;2023-07-16T12:20:25;1.00;;;0.40;;
58978;SDS011;44763;50.464;30.612;2023-07-16T12:22:27;2.40;;;1.10;;
58978;SDS011;44763;50.464;30.612;2023-07-16T12:24:30;1.10;;;1.00;;
58978;SDS011;44763;50.464;30.612;2023-07-16T12:26:32;0.60;;;0.60;;
58978;SDS011;44763;50.464;30.612;2023-07-16T12:28:33;1.80;;;0.70;;
58978;SDS011;44763;50.464;30.612;2023-07-16T12:30:35;1.20;;;0.70;;
58978;SDS011;44763;50.464;30.612;2023-07-16T12:32:37;4.90;;;0.70;;
58978;SDS011;44763;50.464;30.612;2023-07-16T12:34:39;1.60;;;1.00;;
58978;SDS011;44763;50.464;30.612;2023-07-16T12:36:40;0.90;;;0.90;;
58978;SDS011;44763;50.464;30.612;2023-07-16T12:38:42;3.00;;;1.20;;
58978;SDS011;44763;50.464;30.612;2023-07-16T12:40:44;1.90;;;0.80;;
58978;SDS011;44763;50.464;30.612;2023-07-16T12:42:45;1.00;;;0.70;;
58978;SDS011;44763;50.464;30.612;2023-07-16T12:44:47;0.80;;;0.50;;
58978;SDS011;44763;50.464;30.612;2023-07-16T12:46:50;1.70;;;0.70;;
58978;SDS011;44763;50.464;30.612;2023-07-16T12:48:52;2.20;;;0.60;;
58978;SDS011;44763;50.464;30.612;2023-07-16T12:50:54;1.90;;;1.00;;
58978;SDS011;44763;50.464;30.612;2023-07-16T12:52:55;0.90;;;0.80;;
58978;SDS011;44763;50.464;30.612;2023-07-16T12:54:57;3.60;;;1.00;;
58978;SDS011;44763;50.464;30.612;2023-07-16T12:56:59;2.30;;;0.80;;
58978;SDS011;44763;50.464;30.612;2023-07-16T12:59:01;1.50;;;0.80;;
58978;SDS011;44763;50.464;30.612;2023-07-16T13:01:03;3.60;;;0.80;;
58978;SDS011;44763;50.464;30.612;2023-07-16T13:03:05;1.00;;;0.90;;
58978;SDS011;44763;50.464;30.612;2023-07-16T13:05:07;0.80;;;0.60;;
58978;SDS011;44763;50.464;30.612;2023-07-16T13:07:08;2.00;;;0.80;;
58978;SDS011;44763;50.464;30.612;2023-07-16T13:09:10;0.90;;;0.60;;
58978;SDS011;44763;50.464;30.612;2023-07-16T13:11:15;0.50;;;0.50;;
58978;SDS011;44763;50.464;30.612;2023-07-16T13:13:17;2.30;;;0.60;;
58978;SDS011;44763;50.464;30.612;2023-07-16T13:15:18;1.60;;;1.10;;
58978;SDS011;44763;50.464;30.612;2023-07-16T13:17:20;1.30;;;0.90;;
58978;SDS011;44763;50.464;30.612;2023-07-16T13:19:22;1.20;;;0.60;;
58978;SDS011;44763;50.464;30.612;2023-07-16T13:21:23;1.20;;;0.80;;
58978;SDS011;44763;50.464;30.612;2023-07-16T13:23:25;1.10;;;0.80;;
58978;SDS011;44763;50.464;30.612;2023-07-16T13:25:27;2.30;;;0.70;;
58978;SDS011;44763;50.464;30.612;2023-07-16T13:27:30;0.90;;;0.90;;
58978;SDS011;44763;50.464;30.612;2023-07-16T13:29:32;1.00;;;0.90;;
58978;SDS011;44763;50.464;30.612;2023-07-16T13:31:34;1.10;;;0.90;;
58978;SDS011;44763;50.464;30.612;2023-07-16T13:33:36;1.10;;;1.10;;
58978;SDS011;44763;50.464;30.612;2023-07-16T13:35:37;1.20;;;0.90;;
58978;SDS011;44763;50.464;30.612;2023-07-16T13:37:39;0.80;;;0.80;;
58978;SDS011;44763;50.464;30.612;2023-07-16T13:39:41;1.50;;;1.10;;
58978;SDS011;44763;50.464;30.612;2023-07-16T13:41:42;0.80;;;0.80;;
58978;SDS011;44763;50.464;30.612;2023-07-16T13:43:45;1.20;;;1.10;;
58978;SDS011;44763;50.464;30.612;2023-07-16T13:45:46;1.00;;;0.60;;
58978;SDS011;44763;50.464;30.612;2023-07-16T13:47:50;0.90;;;0.80;;
58978;SDS011;44763;50.464;30.612;2023-07-16T13:49:54;1.10;;;1.00;;
58978;SDS011;44763;50.464;30.612;2023-07-16T13:51:56;1.20;;;1.10;;
58978;SDS011;44763;50.464;30.612;2023-07-16T13:53:58;3.60;;;1.30;;
58978;SDS011;44763;50.464;30.612;2023-07-16T13:55:59;1.20;;;0.90;;
58978;SDS011;44763;50.464;30.612;2023-07-16T13:58:01;1.20;;;0.80;;
58978;SDS011;44763;50.464;30.612;2023-07-16T14:00:03;1.50;;;0.70;;
58978;SDS011;44763;50.464;30.612;2023-07-16T14:02:06;1.20;;;1.00;;
58978;SDS011;44763;50.464;30.612;2023-07-16T14:04:08;0.70;;;0.70;;
58978;SDS011;44763;50.464;30.612;2023-07-16T14:06:09;0.90;;;0.80;;
58978;SDS011;44763;50.464;30.612;2023-07-16T14:08:11;0.70;;;0.70;;
58978;SDS011;44763;50.464;30.612;2023-07-16T14:10:14;1.50;;;0.80;;
58978;SDS011;44763;50.464;30.612;2023-07-16T14:12:15;1.60;;;0.70;;
58978;SDS011;44763;50.464;30.612;2023-07-16T14:14:17;1.20;;;1.10;;
58978;SDS011;44763;50.464;30.612;2023-07-16T14:16:20;3.20;;;0.80;;
58978;SDS011;44763;50.464;30.612;2023-07-16T14:18:22;1.50;;;1.30;;
58978;SDS011;44763;50.464;30.612;2023-07-16T14:20:24;1.10;;;0.40;;
58978;SDS011;44763;50.464;30.612;2023-07-16T14:22:26;1.40;;;0.80;;
58978;SDS011;44763;50.464;30.612;2023-07-16T14:24:29;2.00;;;1.10;;
58978;SDS011;44763;50.464;30.612;2023-07-16T14:26:31;1.40;;;0.80;;
58978;SDS011;44763;50.464;30.612;2023-07-16T14:28:32;7.60;;;0.90;;
58978;SDS011;44763;50.464;30.612;2023-07-16T14:30:34;1.00;;;0.90;;
58978;SDS011;44763;50.464;30.612;2023-07-16T14:32:36;1.70;;;1.10;;
58978;SDS011;44763;50.464;30.612;2023-07-16T14:34:38;1.70;;;1.20;;
58978;SDS011;44763;50.464;30.612;2023-07-16T14:36:40;2.90;;;1.00;;
58978;SDS011;44763;50.464;30.612;2023-07-16T14:38:42;2.70;;;2.50;;
58978;SDS011;44763;50.464;30.612;2023-07-16T14:40:44;1.30;;;0.80;;
58978;SDS011;44763;50.464;30.612;2023-07-16T14:42:46;0.90;;;0.90;;
58978;SDS011;44763;50.464;30.612;2023-07-16T14:44:47;1.60;;;0.60;;
58978;SDS011;44763;50.464;30.612;2023-07-16T14:46:49;1.20;;;1.10;;
58978;SDS011;44763;50.464;30.612;2023-07-16T14:48:51;0.70;;;0.70;;
58978;SDS011;44763;50.464;30.612;2023-07-16T14:50:56;1.30;;;1.00;;
58978;SDS011;44763;50.464;30.612;2023-07-16T14:52:58;1.60;;;1.30;;
58978;SDS011;44763;50.464;30.612;2023-07-16T14:54:59;0.60;;;0.50;;
58978;SDS011;44763;50.464;30.612;2023-07-16T14:57:01;0.90;;;0.80;;
58978;SDS011;44763;50.464;30.612;2023-07-16T14:59:04;1.80;;;0.60;;
58978;SDS011;44763;50.464;30.612;2023-07-16T15:01:06;1.00;;;0.80;;
58978;SDS011;44763;50.464;30.612;2023-07-16T15:03:11;1.90;;;1.00;;
58978;SDS011;44763;50.464;30.612;2023-07-16T15:05:13;1.10;;;1.10;;
58978;SDS011;44763;50.464;30.612;2023-07-16T15:07:14;2.00;;;0.80;;
58978;SDS011;44763;50.464;30.612;2023-07-16T15:09:16;0.80;;;0.80;;
58978;SDS011;44763;50.464;30.612;2023-07-16T15:11:18;1.40;;;1.00;;
58978;SDS011;44763;50.464;30.612;2023-07-16T15:13:20;1.30;;;1.20;;
58978;SDS011;44763;50.464;30.612;2023-07-16T15:15:23;0.90;;;0.90;;
58978;SDS011;44763;50.464;30.612;2023-07-16T15:17:25;2.90;;;1.00;;
58978;SDS011;44763;50.464;30.612;2023-07-16T15:19:27;1.10;;;1.00;;
58978;SDS011;44763;50.464;30.612;2023-07-16T15:21:28;1.60;;;1.10;;
58978;SDS011;44763;50.464;30.612;2023-07-16T15:23:31;2.00;;;0.80;;
58978;SDS011;44763;50.464;30.612;2023-07-16T15:25:33;0.90;;;0.70;;
58978;SDS011;44763;50.464;30.612;2023-07-16T15:27:35;1.50;;;1.00;;
58978;SDS011;44763;50.464;30.612;2023-07-16T15:29:37;1.50;;;1.40;;
58978;SDS011;44763;50.464;30.612;2023-07-16T15:31:38;3.00;;;1.60;;
58978;SDS011;44763;50.464;30.612;2023-07-16T15:33:43;2.30;;;0.70;;
58978;SDS011;44763;50.464;30.612;2023-07-16T15:35:44;4.10;;;2.50;;
58978;SDS011;44763;50.464;30.612;2023-07-16T15:37:46;1.20;;;1.20;;
58978;SDS011;44763;50.464;30.612;2023-07-16T15:39:48;2.30;;;1.60;;
58978;SDS011;44763;50.464;30.612;2023-07-16T15:41:50;3.10;;;1.40;;
58978;SDS011;44763;50.464;30.612;2023-07-16T15:43:53;1.60;;;1.30;;
58978;SDS011;44763;50.464;30.612;2023-07-16T15:45:55;0.90;;;0.90;;
58978;SDS011;44763;50.464;30.612;2023-07-16T15:47:59;2.20;;;1.00;;
58978;SDS011;44763;50.464;30.612;2023-07-16T15:50:01;1.80;;;1.00;;
58978;SDS011;44763;50.464;30.612;2023-07-16T15:52:04;1.30;;;1.00;;
58978;SDS011;44763;50.464;30.612;2023-07-16T15:54:06;3.50;;;0.80;;
58978;SDS011;44763;50.464;30.612;2023-07-16T15:56:11;1.10;;;1.10;;
58978;SDS011;44763;50.464;30.612;2023-07-16T15:58:17;2.70;;;1.10;;
58978;SDS011;44763;50.464;30.612;2023-07-16T16:00:22;6.10;;;3.70;;
58978;SDS011;44763;50.464;30.612;2023-07-16T16:02:24;3.50;;;2.70;;
58978;SDS011;44763;50.464;30.612;2023-07-16T16:04:26;2.40;;;1.80;;
58978;SDS011;44763;50.464;30.612;2023-07-16T16:06:28;1.80;;;1.60;;
58978;SDS011;44763;50.464;30.612;2023-07-16T16:08:31;1.90;;;1.50;;
58978;SDS011;44763;50.464;30.612;2023-07-16T16:10:37;1.70;;;1.30;;
58978;SDS011;44763;50.464;30.612;2023-07-16T16:12:39;1.40;;;1.30;;
58978;SDS011;44763;50.464;30.612;2023-07-16T16:14:40;1.30;;;1.10;;
58978;SDS011;44763;50.464;30.612;2023-07-16T16:16:42;1.30;;;1.00;;
58978;SDS011;44763;50.464;30.612;2023-07-16T16:19:01;2.30;;;1.40;;
58978;SDS011;44763;50.464;30.612;2023-07-16T16:21:04;1.20;;;1.20;;
58978;SDS011;44763;50.464;30.612;2023-07-16T16:23:08;1.80;;;1.40;;
58978;SDS011;44763;50.464;30.612;2023-07-16T16:25:10;1.90;;;1.80;;
58978;SDS011;44763;50.464;30.612;2023-07-16T16:27:12;4.40;;;4.10;;
58978;SDS011;44763;50.464;30.612;2023-07-16T16:29:17;2.80;;;2.50;;
58978;SDS011;44763;50.464;30.612;2023-07-16T16:31:19;1.80;;;1.70;;
58978;SDS011;44763;50.464;30.612;2023-07-16T16:33:24;3.50;;;1.20;;
58978;SDS011;44763;50.464;30.612;2023-07-16T16:35:26;1.50;;;1.50;;
58978;SDS011;44763;50.464;30.612;2023-07-16T16:37:30;2.00;;;0.70;;
58978;SDS011;44763;50.464;30.612;2023-07-16T16:39:33;1.00;;;0.90;;
58978;SDS011;44763;50.464;30.612;2023-07-16T16:41:35;1.70;;;1.00;;
58978;SDS011;44763;50.464;30.612;2023-07-16T16:43:36;1.90;;;1.00;;
58978;SDS011;44763;50.464;30.612;2023-07-16T16:45:38;0.70;;;0.70;;
58978;SDS011;44763;50.464;30.612;2023-07-16T16:47:43;1.70;;;0.90;;
58978;SDS011;44763;50.464;30.612;2023-07-16T16:49:45;0.90;;;0.80;;
58978;SDS011;44763;50.464;30.612;2023-07-16T16:51:46;1.20;;;1.10;;
58978;SDS011;44763;50.464;30.612;2023-07-16T16:53:48;1.30;;;0.70;;
58978;SDS011;44763;50.464;30.612;2023-07-16T16:55:50;1.10;;;0.90;;
58978;SDS011;44763;50.464;30.612;2023-07-16T16:57:51;1.20;;;1.10;;
58978;SDS011;44763;50.464;30.612;2023-07-16T16:59:53;3.70;;;0.90;;
58978;SDS011;44763;50.464;30.612;2023-07-16T17:01:55;2.00;;;0.80;;
58978;SDS011;44763;50.464;30.612;2023-07-16T17:03:57;2.50;;;0.80;;
58978;SDS011;44763;50.464;30.612;2023-07-16T17:05:59;1.00;;;0.80;;
58978;SDS011;44763;50.464;30.612;2023-07-16T17:08:01;4.90;;;1.30;;
58978;SDS011;44763;50.464;30.612;2023-07-16T17:10:04;1.10;;;1.10;;
58978;SDS011;44763;50.464;30.612;2023-07-16T17:12:07;1.40;;;0.80;;
58978;SDS011;44763;50.464;30.612;2023-07-16T17:14:12;1.20;;;1.10;;
58978;SDS011;44763;50.464;30.612;2023-07-16T17:16:14;1.80;;;1.30;;
58978;SDS011;44763;50.464;30.612;2023-07-16T17:18:16;1.70;;;1.50;;
58978;SDS011;44763;50.464;30.612;2023-07-16T17:20:18;3.40;;;1.70;;
58978;SDS011;44763;50.464;30.612;2023-07-16T17:22:20;0.90;;;0.90;;
58978;SDS011;44763;50.464;30.612;2023-07-16T17:24:23;1.60;;;1.30;;
58978;SDS011;44763;50.464;30.612;2023-07-16T17:26:24;2.30;;;1.10;;
58978;SDS011;44763;50.464;30.612;2023-07-16T17:28:26;2.80;;;1.20;;
58978;SDS011;44763;50.464;30.612;2023-07-16T17:30:28;1.70;;;0.90;;
58978;SDS011;44763;50.464;30.612;2023-07-16T17:32:29;1.10;;;1.10;;
58978;SDS011;44763;50.464;30.612;2023-07-16T17:34:33;2.10;;;1.30;;
58978;SDS011;44763;50.464;30.612;2023-07-16T17:36:36;1.40;;;1.40;;
58978;SDS011;44763;50.464;30.612;2023-07-16T17:38:38;2.70;;;0.90;;
58978;SDS011;44763;50.464;30.612;2023-07-16T17:40:39;1.40;;;1.30;;
58978;SDS011;44763;50.464;30.612;2023-07-16T17:42:41;2.00;;;1.30;;
58978;SDS011;44763;50.464;30.612;2023-07-16T17:44:43;2.80;;;1.10;;
58978;SDS011;44763;50.464;30.612;2023-07-16T17:46:48;4.70;;;1.60;;
58978;SDS011;44763;50.464;30.612;2023-07-16T17:48:50;2.60;;;1.80;;
58978;SDS011;44763;50.464;30.612;2023-07-16T17:50:52;2.10;;;1.50;;
58978;SDS011;44763;50.464;30.612;2023-07-16T17:52:53;2.50;;;2.10;;
58978;SDS011;44763;50.464;30.612;2023-07-16T17:54:55;2.10;;;1.90;;
58978;SDS011;44763;50.464;30.612;2023-07-16T17:56:57;1.70;;;1.60;;
58978;SDS011;44763;50.464;30.612;2023-07-16T17:58:59;1.70;;;1.60;;
58978;SDS011;44763;50.464;30.612;2023-07-16T18:01:01;1.70;;;1.60;;
58978;SDS011;44763;50.464;30.612;2023-07-16T18:03:02;2.40;;;1.60;;
58978;SDS011;44763;50.464;30.612;2023-07-16T18:05:04;2.60;;;1.70;;
58978;SDS011;44763;50.464;30.612;2023-07-16T18:07:08;2.20;;;1.90;;
58978;SDS011;44763;50.464;30.612;2023-07-16T18:09:13;2.00;;;1.70;;
58978;SDS011;44763;50.464;30.612;2023-07-16T18:11:15;3.40;;;1.70;;
58978;SDS011;44763;50.464;30.612;2023-07-16T18:13:17;3.30;;;2.90;;
58978;SDS011;44763;50.464;30.612;2023-07-16T18:15:19;2.90;;;2.70;;
58978;SDS011;44763;50.464;30.612;2023-07-16T18:17:24;3.20;;;2.60;;
58978;SDS011;44763;50.464;30.612;2023-07-16T18:19:26;2.30;;;2.10;;
58978;SDS011;44763;50.464;30.612;2023-07-16T18:21:29;2.70;;;1.80;;
58978;SDS011;44763;50.464;30.612;2023-07-16T18:23:40;3.00;;;2.00;;
58978;SDS011;44763;50.464;30.612;2023-07-16T18:25:43;2.10;;;2.00;;
58978;SDS011;44763;50.464;30.612;2023-07-16T18:27:47;3.10;;;2.40;;
58978;SDS011;44763;50.464;30.612;2023-07-16T18:29:48;2.60;;;2.40;;
58978;SDS011;44763;50.464;30.612;2023-07-16T18:31:50;4.00;;;2.50;;
58978;SDS011;44763;50.464;30.612;2023-07-16T18:33:52;2.50;;;2.30;;
58978;SDS011;44763;50.464;30.612;2023-07-16T18:35:56;3.40;;;3.20;;
58978;SDS011;44763;50.464;30.612;2023-07-16T18:37:59;3.30;;;3.00;;
58978;SDS011;44763;50.464;30.612;2023-07-16T18:40:02;2.80;;;2.70;;
58978;SDS011;44763;50.464;30.612;2023-07-16T18:42:08;3.50;;;2.10;;
58978;SDS011;44763;50.464;30.612;2023-07-16T18:44:12;5.40;;;1.90;;
58978;SDS011;44763;50.464;30.612;2023-07-16T18:46:14;4.40;;;2.40;;
58978;SDS011;44763;50.464;30.612;2023-07-16T18:48:16;1.80;;;1.70;;
58978;SDS011;44763;50.464;30.612;2023-07-16T18:50:18;3.40;;;2.00;;
58978;SDS011;44763;50.464;30.612;2023-07-16T18:52:20;2.80;;;2.20;;